sensor_id;sensor_type;location;lat;lon;timestamp;pressure;altitude;pressure_sealevel;temperature;humidity
38812;BME280;24553;51.640;-0.752;2023-02-13T00:01:09;102752.53;;;8.10;100.00
38812;BME280;24553;51.640;-0.752;2023-02-13T00:03:34;102753.75;;;8.06;100.00
38812;BME280;24553;51.640;-0.752;2023-02-13T00:06:00;102744.25;;;8.15;100.00
38812;BME280;24553;51.640;-0.752;2023-02-13T00:08:25;102754.00;;;8.14;100.00
38812;BME280;24553;51.640;-0.752;2023-02-13T00:10:50;102748.13;;;8.22;100.00
38812;BME280;24553;51.640;-0.752;2023-02-13T00:13:16;102747.13;;;8.23;100.00
38812;BME280;24553;51.640;-0.752;2023-02-13T00:15:41;102748.84;;;8.24;100.00
38812;BME280;24553;51.640;-0.752;2023-02-13T00:18:06;102740.19;;;8.22;100.00
38812;BME280;24553;51.640;-0.752;2023-02-13T00:20:32;102735.50;;;8.25;100.00
38812;BME280;24553;51.640;-0.752;2023-02-13T00:22:58;102745.81;;;8.28;100.00
38812;BME280;24553;51.640;-0.752;2023-02-13T00:25:23;102740.66;;;8.27;100.00
38812;BME280;24553;51.640;-0.752;2023-02-13T00:27:52;102738.97;;;8.26;100.00
38812;BME280;24553;51.640;-0.752;2023-02-13T00:30:19;102739.44;;;8.31;100.00
38812;BME280;24553;51.640;-0.752;2023-02-13T00:32:44;102735.72;;;8.34;100.00
38812;BME280;24553;51.640;-0.752;2023-02-13T00:35:10;102731.41;;;8.33;100.00
38812;BME280;24553;51.640;-0.752;2023-02-13T00:37:35;102742.09;;;8.31;100.00
38812;BME280;24553;51.640;-0.752;2023-02-13T00:40:01;102738.16;;;8.37;100.00
38812;BME280;24553;51.640;-0.752;2023-02-13T00:42:26;102732.00;;;8.36;100.00
38812;BME280;24553;51.640;-0.752;2023-02-13T00:44:52;102734.88;;;8.33;100.00
38812;BME280;24553;51.640;-0.752;2023-02-13T00:47:18;102738.28;;;8.24;100.00
38812;BME280;24553;51.640;-0.752;2023-02-13T00:49:44;102737.41;;;8.23;100.00
38812;BME280;24553;51.640;-0.752;2023-02-13T00:52:09;102737.78;;;8.30;100.00
38812;BME280;24553;51.640;-0.752;2023-02-13T00:54:35;102734.16;;;8.31;100.00
38812;BME280;24553;51.640;-0.752;2023-02-13T00:57:01;102729.50;;;8.35;100.00
38812;BME280;24553;51.640;-0.752;2023-02-13T00:59:26;102735.38;;;8.27;100.00
38812;BME280;24553;51.640;-0.752;2023-02-13T01:01:52;102720.38;;;8.16;100.00
38812;BME280;24553;51.640;-0.752;2023-02-13T01:04:17;102721.44;;;8.14;100.00
38812;BME280;24553;51.640;-0.752;2023-02-13T01:06:42;102724.78;;;8.16;100.00
38812;BME280;24553;51.640;-0.752;2023-02-13T01:09:08;102727.91;;;8.21;100.00
38812;BME280;24553;51.640;-0.752;2023-02-13T01:11:33;102722.88;;;8.18;100.00
38812;BME280;24553;51.640;-0.752;2023-02-13T01:13:58;102715.19;;;8.26;100.00
38812;BME280;24553;51.640;-0.752;2023-02-13T01:16:24;102710.75;;;8.15;100.00
38812;BME280;24553;51.640;-0.752;2023-02-13T01:18:49;102714.13;;;8.06;100.00
38812;BME280;24553;51.640;-0.752;2023-02-13T01:21:17;102717.84;;;8.03;100.00
38812;BME280;24553;51.640;-0.752;2023-02-13T01:23:43;102715.53;;;8.10;100.00
38812;BME280;24553;51.640;-0.752;2023-02-13T01:26:15;102721.91;;;8.07;100.00
38812;BME280;24553;51.640;-0.752;2023-02-13T01:28:41;102723.00;;;8.05;100.00
38812;BME280;24553;51.640;-0.752;2023-02-13T01:31:07;102722.41;;;8.01;100.00
38812;BME280;24553;51.640;-0.752;2023-02-13T01:33:32;102719.75;;;8.01;100.00
38812;BME280;24553;51.640;-0.752;2023-02-13T01:35:58;102724.94;;;8.03;100.00
38812;BME280;24553;51.640;-0.752;2023-02-13T01:38:24;102725.53;;;7.95;100.00
38812;BME280;24553;51.640;-0.752;2023-02-13T01:40:52;102731.75;;;7.94;100.00
38812;BME280;24553;51.640;-0.752;2023-02-13T01:43:18;102731.50;;;7.86;100.00
38812;BME280;24553;51.640;-0.752;2023-02-13T01:45:46;102732.50;;;7.85;100.00
38812;BME280;24553;51.640;-0.752;2023-02-13T01:48:18;102741.09;;;7.87;100.00
38812;BME280;24553;51.640;-0.752;2023-02-13T01:51:15;102738.50;;;7.98;100.00
38812;BME280;24553;51.640;-0.752;2023-02-13T01:53:45;102735.38;;;7.93;100.00
38812;BME280;24553;51.640;-0.752;2023-02-13T01:56:28;102729.72;;;7.86;100.00
38812;BME280;24553;51.640;-0.752;2023-02-13T01:59:00;102735.81;;;7.87;100.00
38812;BME280;24553;51.640;-0.752;2023-02-13T02:01:27;102735.81;;;7.87;100.00
38812;BME280;24553;51.640;-0.752;2023-02-13T02:04:04;102731.03;;;7.81;100.00
38812;BME280;24553;51.640;-0.752;2023-02-13T02:06:36;102732.69;;;7.71;100.00
38812;BME280;24553;51.640;-0.752;2023-02-13T02:09:09;102728.13;;;7.73;100.00
38812;BME280;24553;51.640;-0.752;2023-02-13T02:14:10;102729.31;;;7.69;100.00
38812;BME280;24553;51.640;-0.752;2023-02-13T02:16:36;102722.81;;;7.61;100.00
38812;BME280;24553;51.640;-0.752;2023-02-13T02:19:04;102725.25;;;7.64;100.00
38812;BME280;24553;51.640;-0.752;2023-02-13T02:47:12;102710.47;;;7.62;100.00
38812;BME280;24553;51.640;-0.752;2023-02-13T02:57:48;102705.91;;;7.64;100.00
38812;BME280;24553;51.640;-0.752;2023-02-13T03:00:34;102708.19;;;7.57;100.00
38812;BME280;24553;51.640;-0.752;2023-02-13T03:03:21;102700.94;;;7.48;100.00
38812;BME280;24553;51.640;-0.752;2023-02-13T03:06:16;102704.16;;;7.40;100.00
38812;BME280;24553;51.640;-0.752;2023-02-13T03:08:50;102704.66;;;7.46;100.00
38812;BME280;24553;51.640;-0.752;2023-02-13T03:11:36;102709.00;;;7.47;100.00
38812;BME280;24553;51.640;-0.752;2023-02-13T03:14:23;102702.72;;;7.36;100.00
38812;BME280;24553;51.640;-0.752;2023-02-13T03:16:50;102711.09;;;7.30;100.00
38812;BME280;24553;51.640;-0.752;2023-02-13T03:19:43;102702.09;;;7.33;100.00
38812;BME280;24553;51.640;-0.752;2023-02-13T03:22:41;102702.03;;;7.46;100.00
38812;BME280;24553;51.640;-0.752;2023-02-13T03:25:17;102700.84;;;7.50;100.00
38812;BME280;24553;51.640;-0.752;2023-02-13T03:28:16;102694.72;;;7.49;100.00
38812;BME280;24553;51.640;-0.752;2023-02-13T03:34:12;102689.06;;;7.42;100.00
38812;BME280;24553;51.640;-0.752;2023-02-13T03:36:49;102691.84;;;7.41;100.00
38812;BME280;24553;51.640;-0.752;2023-02-13T03:44:59;102697.03;;;7.18;100.00
38812;BME280;24553;51.640;-0.752;2023-02-13T03:47:46;102693.66;;;7.16;100.00
38812;BME280;24553;51.640;-0.752;2023-02-13T03:50:14;102690.06;;;7.17;100.00
38812;BME280;24553;51.640;-0.752;2023-02-13T03:55:25;102705.06;;;7.17;100.00
38812;BME280;24553;51.640;-0.752;2023-02-13T03:58:15;102702.09;;;7.21;100.00
38812;BME280;24553;51.640;-0.752;2023-02-13T04:01:03;102696.81;;;7.21;100.00
38812;BME280;24553;51.640;-0.752;2023-02-13T04:06:30;102694.66;;;7.27;100.00
38812;BME280;24553;51.640;-0.752;2023-02-13T04:08:57;102689.88;;;7.32;100.00
38812;BME280;24553;51.640;-0.752;2023-02-13T04:13:58;102692.25;;;7.24;100.00
38812;BME280;24553;51.640;-0.752;2023-02-13T04:18:59;102689.19;;;7.06;100.00
38812;BME280;24553;51.640;-0.752;2023-02-13T04:21:25;102696.84;;;6.97;100.00
38812;BME280;24553;51.640;-0.752;2023-02-13T04:23:50;102691.19;;;7.02;100.00
38812;BME280;24553;51.640;-0.752;2023-02-13T04:26:18;102684.75;;;7.06;100.00
38812;BME280;24553;51.640;-0.752;2023-02-13T04:28:45;102686.25;;;7.21;100.00
38812;BME280;24553;51.640;-0.752;2023-02-13T04:31:10;102681.47;;;7.27;100.00
38812;BME280;24553;51.640;-0.752;2023-02-13T04:33:35;102682.44;;;7.26;100.00
38812;BME280;24553;51.640;-0.752;2023-02-13T04:36:01;102688.56;;;7.26;100.00
38812;BME280;24553;51.640;-0.752;2023-02-13T04:38:26;102682.19;;;7.29;100.00
38812;BME280;24553;51.640;-0.752;2023-02-13T04:40:52;102683.63;;;7.33;100.00
38812;BME280;24553;51.640;-0.752;2023-02-13T04:43:17;102674.44;;;7.38;100.00
38812;BME280;24553;51.640;-0.752;2023-02-13T04:45:42;102677.91;;;7.50;100.00
38812;BME280;24553;51.640;-0.752;2023-02-13T04:48:08;102678.25;;;7.46;100.00
38812;BME280;24553;51.640;-0.752;2023-02-13T04:50:35;102671.91;;;7.37;100.00
38812;BME280;24553;51.640;-0.752;2023-02-13T04:53:00;102680.41;;;7.29;100.00
38812;BME280;24553;51.640;-0.752;2023-02-13T04:55:26;102676.03;;;7.17;100.00
38812;BME280;24553;51.640;-0.752;2023-02-13T04:57:53;102668.47;;;7.12;100.00
38812;BME280;24553;51.640;-0.752;2023-02-13T05:00:20;102676.16;;;7.15;100.00
38812;BME280;24553;51.640;-0.752;2023-02-13T05:02:46;102662.84;;;7.17;100.00
38812;BME280;24553;51.640;-0.752;2023-02-13T05:05:11;102662.84;;;7.17;100.00
38812;BME280;24553;51.640;-0.752;2023-02-13T05:07:36;102664.41;;;7.19;100.00
38812;BME280;24553;51.640;-0.752;2023-02-13T05:10:02;102662.25;;;7.25;100.00
38812;BME280;24553;51.640;-0.752;2023-02-13T05:12:28;102655.91;;;7.16;100.00
38812;BME280;24553;51.640;-0.752;2023-02-13T05:14:53;102658.78;;;7.13;100.00
38812;BME280;24553;51.640;-0.752;2023-02-13T05:17:18;102656.22;;;7.11;100.00
38812;BME280;24553;51.640;-0.752;2023-02-13T05:19:44;102658.28;;;7.08;100.00
38812;BME280;24553;51.640;-0.752;2023-02-13T05:22:09;102660.19;;;7.06;100.00
38812;BME280;24553;51.640;-0.752;2023-02-13T05:24:53;102660.19;;;7.06;100.00
38812;BME280;24553;51.640;-0.752;2023-02-13T05:27:19;102660.28;;;7.04;100.00
38812;BME280;24553;51.640;-0.752;2023-02-13T05:29:44;102676.25;;;7.03;100.00
38812;BME280;24553;51.640;-0.752;2023-02-13T05:32:10;102667.69;;;6.99;100.00
38812;BME280;24553;51.640;-0.752;2023-02-13T05:34:35;102667.34;;;7.04;100.00
38812;BME280;24553;51.640;-0.752;2023-02-13T05:37:00;102665.78;;;7.01;100.00
38812;BME280;24553;51.640;-0.752;2023-02-13T05:39:26;102672.63;;;7.04;100.00
38812;BME280;24553;51.640;-0.752;2023-02-13T05:41:51;102668.91;;;6.95;100.00
38812;BME280;24553;51.640;-0.752;2023-02-13T05:44:16;102672.38;;;6.95;100.00
38812;BME280;24553;51.640;-0.752;2023-02-13T05:46:43;102667.81;;;6.97;100.00
38812;BME280;24553;51.640;-0.752;2023-02-13T05:49:10;102667.47;;;7.02;100.00
38812;BME280;24553;51.640;-0.752;2023-02-13T05:51:36;102662.41;;;6.99;100.00
38812;BME280;24553;51.640;-0.752;2023-02-13T05:54:02;102671.41;;;6.96;100.00
38812;BME280;24553;51.640;-0.752;2023-02-13T05:56:27;102663.34;;;6.87;100.00
38812;BME280;24553;51.640;-0.752;2023-02-13T05:58:55;102664.28;;;6.86;100.00
38812;BME280;24553;51.640;-0.752;2023-02-13T06:01:22;102662.97;;;6.91;100.00
38812;BME280;24553;51.640;-0.752;2023-02-13T06:03:47;102670.78;;;6.93;100.00
38812;BME280;24553;51.640;-0.752;2023-02-13T06:06:13;102670.56;;;6.96;100.00
38812;BME280;24553;51.640;-0.752;2023-02-13T06:08:39;102664.78;;;6.91;100.00
38812;BME280;24553;51.640;-0.752;2023-02-13T06:11:04;102663.94;;;6.90;100.00
38812;BME280;24553;51.640;-0.752;2023-02-13T06:13:30;102673.94;;;6.98;100.00
38812;BME280;24553;51.640;-0.752;2023-02-13T06:15:55;102662.09;;;7.04;100.00
38812;BME280;24553;51.640;-0.752;2023-02-13T06:18:21;102667.47;;;7.02;100.00
38812;BME280;24553;51.640;-0.752;2023-02-13T06:20:46;102671.16;;;6.99;100.00
38812;BME280;24553;51.640;-0.752;2023-02-13T06:23:12;102670.09;;;7.02;100.00
38812;BME280;24553;51.640;-0.752;2023-02-13T06:25:37;102661.25;;;7.03;100.00
38812;BME280;24553;51.640;-0.752;2023-02-13T06:28:04;102660.78;;;7.09;100.00
38812;BME280;24553;51.640;-0.752;2023-02-13T06:30:30;102661.78;;;7.19;100.00
38812;BME280;24553;51.640;-0.752;2023-02-13T06:32:56;102665.38;;;7.18;100.00
38812;BME280;24553;51.640;-0.752;2023-02-13T06:35:21;102665.75;;;7.25;100.00
38812;BME280;24553;51.640;-0.752;2023-02-13T06:37:46;102658.94;;;7.34;100.00
38812;BME280;24553;51.640;-0.752;2023-02-13T06:40:13;102661.84;;;7.42;100.00
38812;BME280;24553;51.640;-0.752;2023-02-13T06:42:41;102655.59;;;7.43;100.00
38812;BME280;24553;51.640;-0.752;2023-02-13T06:45:07;102654.25;;;7.37;100.00
38812;BME280;24553;51.640;-0.752;2023-02-13T06:47:33;102653.44;;;7.37;100.00
38812;BME280;24553;51.640;-0.752;2023-02-13T06:49:58;102659.03;;;7.32;100.00
38812;BME280;24553;51.640;-0.752;2023-02-13T06:52:23;102659.53;;;7.37;100.00
38812;BME280;24553;51.640;-0.752;2023-02-13T06:54:49;102659.69;;;7.36;100.00
38812;BME280;24553;51.640;-0.752;2023-02-13T06:57:14;102656.16;;;7.35;100.00
38812;BME280;24553;51.640;-0.752;2023-02-13T06:59:40;102667.19;;;7.29;100.00
38812;BME280;24553;51.640;-0.752;2023-02-13T07:02:05;102665.88;;;7.35;100.00
38812;BME280;24553;51.640;-0.752;2023-02-13T07:04:31;102660.00;;;7.31;100.00
38812;BME280;24553;51.640;-0.752;2023-02-13T07:06:56;102666.03;;;7.33;100.00
38812;BME280;24553;51.640;-0.752;2023-02-13T07:09:23;102664.22;;;7.34;100.00
38812;BME280;24553;51.640;-0.752;2023-02-13T07:11:48;102669.09;;;7.27;100.00
38812;BME280;24553;51.640;-0.752;2023-02-13T07:14:14;102670.19;;;7.25;100.00
38812;BME280;24553;51.640;-0.752;2023-02-13T07:16:39;102666.22;;;7.19;100.00
38812;BME280;24553;51.640;-0.752;2023-02-13T07:19:05;102666.81;;;7.22;100.00
38812;BME280;24553;51.640;-0.752;2023-02-13T07:21:30;102657.00;;;7.25;100.00
38812;BME280;24553;51.640;-0.752;2023-02-13T07:23:55;102656.50;;;7.19;100.00
38812;BME280;24553;51.640;-0.752;2023-02-13T07:26:21;102655.66;;;7.19;100.00
38812;BME280;24553;51.640;-0.752;2023-02-13T07:28:46;102652.78;;;7.22;100.00
38812;BME280;24553;51.640;-0.752;2023-02-13T07:31:11;102655.63;;;7.08;100.00
38812;BME280;24553;51.640;-0.752;2023-02-13T07:33:37;102663.56;;;7.08;100.00
38812;BME280;24553;51.640;-0.752;2023-02-13T07:36:03;102668.59;;;7.11;100.00
38812;BME280;24553;51.640;-0.752;2023-02-13T07:38:29;102676.38;;;7.12;100.00
38812;BME280;24553;51.640;-0.752;2023-02-13T07:40:58;102667.03;;;7.08;100.00
38812;BME280;24553;51.640;-0.752;2023-02-13T07:43:24;102675.16;;;7.05;100.00
38812;BME280;24553;51.640;-0.752;2023-02-13T07:45:50;102676.94;;;7.05;100.00
38812;BME280;24553;51.640;-0.752;2023-02-13T07:48:20;102676.84;;;7.06;100.00
38812;BME280;24553;51.640;-0.752;2023-02-13T07:50:45;102674.94;;;7.08;100.00
38812;BME280;24553;51.640;-0.752;2023-02-13T07:53:11;102674.97;;;7.19;100.00
38812;BME280;24553;51.640;-0.752;2023-02-13T07:55:36;102680.72;;;7.25;100.00
38812;BME280;24553;51.640;-0.752;2023-02-13T07:58:02;102674.28;;;7.29;100.00
38812;BME280;24553;51.640;-0.752;2023-02-13T08:00:27;102667.53;;;7.25;100.00
38812;BME280;24553;51.640;-0.752;2023-02-13T08:02:53;102675.72;;;7.33;100.00
38812;BME280;24553;51.640;-0.752;2023-02-13T08:05:18;102665.06;;;7.34;100.00
38812;BME280;24553;51.640;-0.752;2023-02-13T08:07:43;102674.88;;;7.32;100.00
38812;BME280;24553;51.640;-0.752;2023-02-13T08:10:12;102675.63;;;7.34;100.00
38812;BME280;24553;51.640;-0.752;2023-02-13T08:12:56;102676.69;;;7.43;100.00
38812;BME280;24553;51.640;-0.752;2023-02-13T08:15:22;102667.13;;;7.42;100.00
38812;BME280;24553;51.640;-0.752;2023-02-13T08:17:48;102675.88;;;7.42;100.00
38812;BME280;24553;51.640;-0.752;2023-02-13T08:20:13;102671.47;;;7.54;100.00
38812;BME280;24553;51.640;-0.752;2023-02-13T08:22:38;102671.94;;;7.59;100.00
38812;BME280;24553;51.640;-0.752;2023-02-13T08:25:05;102671.94;;;7.59;100.00
38812;BME280;24553;51.640;-0.752;2023-02-13T08:27:31;102671.72;;;7.51;100.00
38812;BME280;24553;51.640;-0.752;2023-02-13T08:29:57;102670.63;;;7.54;100.00
38812;BME280;24553;51.640;-0.752;2023-02-13T08:32:23;102678.25;;;7.46;100.00
38812;BME280;24553;51.640;-0.752;2023-02-13T08:34:49;102672.78;;;7.49;100.00
38812;BME280;24553;51.640;-0.752;2023-02-13T08:37:14;102663.88;;;7.50;100.00
38812;BME280;24553;51.640;-0.752;2023-02-13T08:39:40;102670.13;;;7.49;100.00
38812;BME280;24553;51.640;-0.752;2023-02-13T08:42:06;102659.56;;;7.49;100.00
38812;BME280;24553;51.640;-0.752;2023-02-13T08:44:31;102660.53;;;7.59;100.00
38812;BME280;24553;51.640;-0.752;2023-02-13T08:46:56;102663.53;;;7.65;100.00
38812;BME280;24553;51.640;-0.752;2023-02-13T08:49:22;102654.66;;;7.67;100.00
38812;BME280;24553;51.640;-0.752;2023-02-13T08:51:48;102657.44;;;7.65;100.00
38812;BME280;24553;51.640;-0.752;2023-02-13T08:54:14;102655.75;;;7.75;100.00
38812;BME280;24553;51.640;-0.752;2023-02-13T08:56:40;102652.88;;;7.78;100.00
38812;BME280;24553;51.640;-0.752;2023-02-13T08:59:06;102659.38;;;7.85;100.00
38812;BME280;24553;51.640;-0.752;2023-02-13T09:01:31;102653.47;;;7.82;100.00
38812;BME280;24553;51.640;-0.752;2023-02-13T09:03:56;102666.66;;;7.71;100.00
38812;BME280;24553;51.640;-0.752;2023-02-13T09:06:22;102659.47;;;7.84;100.00
38812;BME280;24553;51.640;-0.752;2023-02-13T09:08:50;102656.72;;;7.85;100.00
38812;BME280;24553;51.640;-0.752;2023-02-13T09:11:15;102665.00;;;7.81;100.00
38812;BME280;24553;51.640;-0.752;2023-02-13T09:13:41;102661.50;;;8.14;100.00
38812;BME280;24553;51.640;-0.752;2023-02-13T09:16:07;102647.66;;;8.33;100.00
38812;BME280;24553;51.640;-0.752;2023-02-13T09:18:33;102652.69;;;8.36;100.00
38812;BME280;24553;51.640;-0.752;2023-02-13T09:21:03;102653.56;;;8.37;100.00
38812;BME280;24553;51.640;-0.752;2023-02-13T09:23:34;102645.75;;;8.35;100.00
38812;BME280;24553;51.640;-0.752;2023-02-13T09:26:01;102644.78;;;8.47;100.00
38812;BME280;24553;51.640;-0.752;2023-02-13T09:28:28;102638.50;;;8.60;100.00
38812;BME280;24553;51.640;-0.752;2023-02-13T09:30:54;102646.81;;;8.55;100.00
38812;BME280;24553;51.640;-0.752;2023-02-13T09:33:19;102638.53;;;8.37;100.00
38812;BME280;24553;51.640;-0.752;2023-02-13T09:35:44;102639.97;;;8.41;100.00
38812;BME280;24553;51.640;-0.752;2023-02-13T09:38:10;102632.34;;;8.59;100.00
38812;BME280;24553;51.640;-0.752;2023-02-13T09:40:43;102634.41;;;8.56;100.00
38812;BME280;24553;51.640;-0.752;2023-02-13T09:43:27;102626.63;;;8.75;100.00
38812;BME280;24553;51.640;-0.752;2023-02-13T09:45:59;102641.09;;;8.71;100.00
38812;BME280;24553;51.640;-0.752;2023-02-13T09:48:35;102638.78;;;8.78;100.00
38812;BME280;24553;51.640;-0.752;2023-02-13T09:51:03;102631.66;;;8.57;100.00
38812;BME280;24553;51.640;-0.752;2023-02-13T09:53:28;102632.16;;;8.51;100.00
38812;BME280;24553;51.640;-0.752;2023-02-13T09:56:10;102632.59;;;8.67;100.00
38812;BME280;24553;51.640;-0.752;2023-02-13T10:01:29;102632.38;;;8.80;100.00
38812;BME280;24553;51.640;-0.752;2023-02-13T10:07:19;102624.25;;;9.04;100.00
38812;BME280;24553;51.640;-0.752;2023-02-13T10:10:16;102628.25;;;9.20;100.00
38812;BME280;24553;51.640;-0.752;2023-02-13T10:18:53;102617.16;;;9.56;100.00
38812;BME280;24553;51.640;-0.752;2023-02-13T10:21:23;102628.50;;;9.68;100.00
38812;BME280;24553;51.640;-0.752;2023-02-13T10:23:58;102630.22;;;9.79;100.00
38812;BME280;24553;51.640;-0.752;2023-02-13T10:26:30;102630.41;;;9.87;100.00
38812;BME280;24553;51.640;-0.752;2023-02-13T10:29:33;102621.88;;;9.83;100.00
38812;BME280;24553;51.640;-0.752;2023-02-13T10:32:23;102629.41;;;9.88;100.00
38812;BME280;24553;51.640;-0.752;2023-02-13T10:34:51;102619.59;;;9.69;100.00
38812;BME280;24553;51.640;-0.752;2023-02-13T10:37:20;102621.44;;;9.78;100.00
38812;BME280;24553;51.640;-0.752;2023-02-13T10:39:51;102629.28;;;9.90;100.00
38812;BME280;24553;51.640;-0.752;2023-02-13T10:42:30;102628.56;;;9.88;100.00
38812;BME280;24553;51.640;-0.752;2023-02-13T10:45:19;102630.00;;;10.01;100.00
38812;BME280;24553;51.640;-0.752;2023-02-13T10:48:05;102627.13;;;10.14;100.00
38812;BME280;24553;51.640;-0.752;2023-02-13T10:53:54;102623.13;;;10.30;100.00
38812;BME280;24553;51.640;-0.752;2023-02-13T11:04:42;102604.16;;;10.34;100.00
38812;BME280;24553;51.640;-0.752;2023-02-13T11:07:13;102597.03;;;10.25;100.00
38812;BME280;24553;51.640;-0.752;2023-02-13T11:09:41;102603.75;;;10.39;100.00
38812;BME280;24553;51.640;-0.752;2023-02-13T11:17:21;102606.00;;;10.73;100.00
38812;BME280;24553;51.640;-0.752;2023-02-13T11:19:49;102607.25;;;10.78;100.00
38812;BME280;24553;51.640;-0.752;2023-02-13T11:22:37;102594.56;;;10.82;100.00
38812;BME280;24553;51.640;-0.752;2023-02-13T11:25:27;102597.91;;;10.84;100.00
38812;BME280;24553;51.640;-0.752;2023-02-13T11:28:07;102588.69;;;10.88;100.00
38812;BME280;24553;51.640;-0.752;2023-02-13T11:30:36;102593.94;;;11.07;100.00
38812;BME280;24553;51.640;-0.752;2023-02-13T11:33:20;102582.59;;;11.25;100.00
38812;BME280;24553;51.640;-0.752;2023-02-13T11:35:47;102588.59;;;11.27;100.00
38812;BME280;24553;51.640;-0.752;2023-02-13T11:38:22;102583.69;;;11.42;100.00
38812;BME280;24553;51.640;-0.752;2023-02-13T11:41:12;102573.59;;;11.45;100.00
38812;BME280;24553;51.640;-0.752;2023-02-13T11:46:22;102568.84;;;11.49;100.00
38812;BME280;24553;51.640;-0.752;2023-02-13T11:49:00;102557.88;;;11.62;100.00
38812;BME280;24553;51.640;-0.752;2023-02-13T11:54:23;102541.69;;;11.83;100.00
38812;BME280;24553;51.640;-0.752;2023-02-13T11:59:45;102546.50;;;11.97;100.00
38812;BME280;24553;51.640;-0.752;2023-02-13T12:02:21;102538.91;;;12.20;100.00
38812;BME280;24553;51.640;-0.752;2023-02-13T12:05:20;102550.72;;;12.35;100.00
38812;BME280;24553;51.640;-0.752;2023-02-13T12:07:47;102544.56;;;12.53;100.00
38812;BME280;24553;51.640;-0.752;2023-02-13T12:10:20;102540.28;;;12.60;100.00
38812;BME280;24553;51.640;-0.752;2023-02-13T12:15:33;102527.25;;;12.57;100.00
38812;BME280;24553;51.640;-0.752;2023-02-13T12:23:43;102533.09;;;12.78;100.00
38812;BME280;24553;51.640;-0.752;2023-02-13T12:29:15;102519.28;;;12.57;100.00
38812;BME280;24553;51.640;-0.752;2023-02-13T12:39:32;102519.75;;;12.70;100.00
38812;BME280;24553;51.640;-0.752;2023-02-13T12:53:30;102499.78;;;13.26;100.00
38812;BME280;24553;51.640;-0.752;2023-02-13T12:56:09;102499.69;;;13.44;100.00
38812;BME280;24553;51.640;-0.752;2023-02-13T13:10:12;102492.94;;;13.66;100.00
38812;BME280;24553;51.640;-0.752;2023-02-13T13:13:02;102488.69;;;13.39;100.00
38812;BME280;24553;51.640;-0.752;2023-02-13T13:15:39;102485.47;;;13.27;100.00
38812;BME280;24553;51.640;-0.752;2023-02-13T13:18:34;102492.03;;;13.41;100.00
38812;BME280;24553;51.640;-0.752;2023-02-13T13:21:16;102484.25;;;13.56;100.00
38812;BME280;24553;51.640;-0.752;2023-02-13T13:23:53;102478.47;;;13.69;100.00
38812;BME280;24553;51.640;-0.752;2023-02-13T13:26:44;102482.56;;;13.55;100.00
38812;BME280;24553;51.640;-0.752;2023-02-13T13:29:20;102478.59;;;13.59;100.00
38812;BME280;24553;51.640;-0.752;2023-02-13T13:31:55;102473.28;;;13.75;100.00
38812;BME280;24553;51.640;-0.752;2023-02-13T13:34:24;102477.31;;;13.71;100.00
38812;BME280;24553;51.640;-0.752;2023-02-13T13:37:20;102472.94;;;13.70;100.00
38812;BME280;24553;51.640;-0.752;2023-02-13T13:42:27;102472.34;;;14.01;100.00
38812;BME280;24553;51.640;-0.752;2023-02-13T13:47:47;102458.31;;;13.99;100.00
38812;BME280;24553;51.640;-0.752;2023-02-13T13:50:21;102465.00;;;14.03;100.00
38812;BME280;24553;51.640;-0.752;2023-02-13T13:58:42;102454.00;;;14.06;100.00
38812;BME280;24553;51.640;-0.752;2023-02-13T14:09:36;102444.34;;;13.97;100.00
38812;BME280;24553;51.640;-0.752;2023-02-13T14:12:34;102436.50;;;14.12;100.00
38812;BME280;24553;51.640;-0.752;2023-02-13T14:14:46;102435.84;;;14.10;100.00
38812;BME280;24553;51.640;-0.752;2023-02-13T14:17:13;102430.34;;;14.11;100.00
38812;BME280;24553;51.640;-0.752;2023-02-13T14:19:42;102426.31;;;13.99;100.00
38812;BME280;24553;51.640;-0.752;2023-02-13T14:22:39;102418.16;;;14.09;100.00
38812;BME280;24553;51.640;-0.752;2023-02-13T14:25:06;102427.34;;;14.06;100.00
38812;BME280;24553;51.640;-0.752;2023-02-13T14:27:55;102424.66;;;14.06;100.00
38812;BME280;24553;51.640;-0.752;2023-02-13T14:30:26;102416.00;;;13.96;100.00
38812;BME280;24553;51.640;-0.752;2023-02-13T14:32:52;102416.66;;;13.98;100.00
38812;BME280;24553;51.640;-0.752;2023-02-13T14:35:35;102410.66;;;13.96;100.00
38812;BME280;24553;51.640;-0.752;2023-02-13T14:38:04;102413.31;;;13.88;100.00
38812;BME280;24553;51.640;-0.752;2023-02-13T14:40:41;102415.66;;;13.83;100.00
38812;BME280;24553;51.640;-0.752;2023-02-13T14:43:37;102406.31;;;13.70;100.00
38812;BME280;24553;51.640;-0.752;2023-02-13T14:46:32;102406.28;;;13.62;100.00
38812;BME280;24553;51.640;-0.752;2023-02-13T14:51:48;102411.47;;;13.64;100.00
38812;BME280;24553;51.640;-0.752;2023-02-13T14:54:37;102412.66;;;13.69;100.00
38812;BME280;24553;51.640;-0.752;2023-02-13T14:57:13;102407.28;;;13.53;100.00
38812;BME280;24553;51.640;-0.752;2023-02-13T14:59:54;102410.25;;;13.50;100.00
38812;BME280;24553;51.640;-0.752;2023-02-13T15:02:24;102402.94;;;13.44;100.00
38812;BME280;24553;51.640;-0.752;2023-02-13T15:05:02;102402.59;;;13.39;100.00
38812;BME280;24553;51.640;-0.752;2023-02-13T15:07:33;102398.75;;;13.33;100.00
38812;BME280;24553;51.640;-0.752;2023-02-13T15:12:36;102401.50;;;13.23;100.00
38812;BME280;24553;51.640;-0.752;2023-02-13T15:15:21;102396.03;;;13.25;100.00
38812;BME280;24553;51.640;-0.752;2023-02-13T15:17:47;102396.16;;;13.15;100.00
38812;BME280;24553;51.640;-0.752;2023-02-13T15:22:45;102387.47;;;13.05;100.00
38812;BME280;24553;51.640;-0.752;2023-02-13T15:27:51;102392.88;;;12.87;100.00
38812;BME280;24553;51.640;-0.752;2023-02-13T15:30:23;102395.00;;;12.75;100.00
38812;BME280;24553;51.640;-0.752;2023-02-13T15:33:00;102398.59;;;12.66;100.00
38812;BME280;24553;51.640;-0.752;2023-02-13T15:35:31;102399.75;;;12.63;100.00
38812;BME280;24553;51.640;-0.752;2023-02-13T15:37:58;102391.81;;;12.72;100.00
38812;BME280;24553;51.640;-0.752;2023-02-13T15:40:30;102390.94;;;12.63;100.00